Time;durP1;ratioP1;P1;durP2;ratioP2;P2;SDS_P1;SDS_P2;PMS_P1;PMS_P2;Temp;Humidity;BMP_temperature;BMP_pressure;BME280_temperature;BME280_humidity;BME280_pressure;Samples;Min_cycle;Max_cycle;Signal;HPM_P1;HPM_P2
2023/03/17 00:00:12;;;;;;;2.92;1.17;;;5.40;99.90;;;;;;5049002;28;20057;-39
2023/03/17 00:02:41;;;;;;;4.70;1.48;;;5.60;99.90;;;;;;5049303;28;20045;-40
2023/03/17 00:05:31;;;;;;;4.38;1.33;;;5.40;99.90;;;;;;5049502;28;20056;-39
2023/03/17 00:08:02;;;;;;;3.30;1.52;;;6.80;99.90;;;;;;5048974;28;20100;-39
2023/03/17 00:10:27;;;;;;;3.13;1.55;;;5.40;99.90;;;;;;5048460;28;20482;-39
2023/03/17 00:12:54;;;;;;;3.28;1.60;;;5.50;99.90;;;;;;5049482;28;20041;-39
2023/03/17 00:15:21;;;;;;;3.45;1.50;;;5.60;99.90;;;;;;5031179;28;20053;-40
2023/03/17 00:17:48;;;;;;;3.95;1.80;;;5.60;99.90;;;;;;5048703;28;20037;-40
2023/03/17 00:20:29;;;;;;;5.30;1.67;;;5.60;99.90;;;;;;5048674;28;20041;-40
2023/03/17 00:22:58;;;;;;;3.15;1.30;;;6.90;99.90;;;;;;5048723;28;20049;-40
2023/03/17 00:25:29;;;;;;;2.60;1.10;;;5.70;99.90;;;;;;5048539;28;20490;-40
2023/03/17 00:27:57;;;;;;;6.05;1.85;;;6.10;99.90;;;;;;5047151;28;20398;-40
2023/03/17 00:30:23;;;;;;;3.35;1.48;;;5.80;99.90;;;;;;5049239;28;20598;-40
2023/03/17 00:32:52;;;;;;;3.50;1.30;;;6.80;99.90;;;;;;5048723;28;20096;-40
2023/03/17 00:35:24;;;;;;;4.45;1.48;;;6.10;99.90;;;;;;5048637;28;20763;-40
2023/03/17 00:37:54;;;;;;;6.72;1.55;;;5.70;99.90;;;;;;5048756;28;20048;-40
2023/03/17 00:40:29;;;;;;;4.85;1.95;;;5.60;99.90;;;;;;5048822;28;20048;-40
2023/03/17 00:42:56;;;;;;;6.63;2.17;;;5.80;99.90;;;;;;5048015;28;20056;-40
2023/03/17 00:45:24;;;;;;;3.65;2.05;;;5.50;99.90;;;;;;5048809;28;20123;-40
2023/03/17 00:47:52;;;;;;;5.75;1.65;;;5.60;99.90;;;;;;5048122;28;20083;-40
2023/03/17 00:50:24;;;;;;;5.22;1.80;;;5.70;99.90;;;;;;5048166;28;20106;-40
2023/03/17 00:52:52;;;;;;;3.28;1.73;;;5.60;99.90;;;;;;5047517;28;20115;-40
2023/03/17 00:55:20;;;;;;;3.03;1.70;;;5.80;99.90;;;;;;5048307;28;20152;-40
2023/03/17 00:57:47;;;;;;;2.90;1.25;;;5.60;99.90;;;;;;5047919;28;20106;-40
2023/03/17 01:00:18;;;;;;;4.55;1.58;;;5.60;99.90;;;;;;5048342;28;20048;-40
2023/03/17 01:02:44;;;;;;;3.25;1.63;;;5.80;99.90;;;;;;5047989;28;20545;-40
2023/03/17 01:05:10;;;;;;;2.42;1.30;;;5.80;99.90;;;;;;5048464;28;20103;-40
2023/03/17 01:07:37;;;;;;;3.20;1.63;;;5.70;99.90;;;;;;5048249;28;20106;-40
2023/03/17 01:10:14;;;;;;;4.50;2.10;;;5.70;99.90;;;;;;5048282;28;20394;-40
2023/03/17 01:12:40;;;;;;;2.45;1.15;;;5.60;99.90;;;;;;5048299;28;20361;-40
2023/03/17 01:15:06;;;;;;;4.05;1.52;;;5.80;99.90;;;;;;5048327;28;20110;-40
2023/03/17 01:17:32;;;;;;;3.20;1.42;;;5.80;99.90;;;;;;5047962;28;20081;-40
2023/03/17 01:19:58;;;;;;;3.42;1.70;;;6.40;99.90;;;;;;5047190;28;20098;-40
2023/03/17 01:22:24;;;;;;;4.55;1.55;;;5.60;99.90;;;;;;5047699;28;20395;-40
2023/03/17 01:24:50;;;;;;;4.15;1.92;;;5.70;99.90;;;;;;5047541;28;20387;-40
2023/03/17 01:27:17;;;;;;;4.65;1.70;;;5.80;99.90;;;;;;5047396;28;20044;-40
2023/03/17 01:29:43;;;;;;;4.57;1.95;;;5.60;99.90;;;;;;5047491;28;20556;-40
2023/03/17 01:32:09;;;;;;;4.68;1.88;;;6.90;99.90;;;;;;5047024;28;20041;-40
2023/03/17 01:34:35;;;;;;;4.15;2.28;;;5.80;99.90;;;;;;5047318;28;20040;-40
2023/03/17 01:37:01;;;;;;;4.30;1.88;;;5.50;99.90;;;;;;5047003;28;20118;-40
2023/03/17 01:39:27;;;;;;;4.40;2.05;;;6.40;99.90;;;;;;5046952;28;20049;-40
2023/03/17 01:41:55;;;;;;;4.53;2.35;;;5.70;99.90;;;;;;5028690;28;20595;-40
2023/03/17 01:44:22;;;;;;;9.35;3.17;;;5.50;99.90;;;;;;5048005;28;20045;-40
2023/03/17 01:46:48;;;;;;;2.97;1.80;;;5.50;99.90;;;;;;5029507;28;20051;-40
2023/03/17 01:49:20;;;;;;;4.50;2.22;;;5.60;99.90;;;;;;5047682;28;20132;-40
2023/03/17 01:51:49;;;;;;;3.15;1.63;;;5.70;99.90;;;;;;5047577;28;20080;-40
2023/03/17 01:54:29;;;;;;;2.95;2.00;;;5.40;99.90;;;;;;5047397;28;20052;-40
2023/03/17 01:57:03;;;;;;;2.92;1.90;;;5.70;99.90;;;;;;5046439;28;20098;-40
2023/03/17 01:59:33;;;;;;;5.53;2.55;;;6.00;99.90;;;;;;5046939;28;20051;-40
2023/03/17 02:02:05;;;;;;;3.55;2.10;;;5.50;99.90;;;;;;5046130;28;20510;-40
2023/03/17 02:04:31;;;;;;;3.33;1.87;;;5.70;99.90;;;;;;5046476;28;20522;-40
2023/03/17 02:06:57;;;;;;;5.05;2.10;;;5.70;99.90;;;;;;5046983;28;20716;-40
2023/03/17 02:09:23;;;;;;;4.72;2.20;;;5.60;99.90;;;;;;5047467;28;20049;-40
2023/03/17 02:11:49;;;;;;;5.30;2.22;;;5.60;99.90;;;;;;5047321;28;20389;-40
2023/03/17 02:14:15;;;;;;;4.57;2.42;;;5.60;99.90;;;;;;5047135;28;20048;-40
2023/03/17 02:16:43;;;;;;;5.30;3.45;;;5.60;99.90;;;;;;5046655;28;20406;-40
2023/03/17 02:19:10;;;;;;;4.05;2.30;;;6.30;99.90;;;;;;5046309;28;20060;-40
2023/03/17 02:21:44;;;;;;;4.30;2.15;;;5.60;99.90;;;;;;5046894;28;20056;-40
2023/03/17 02:24:29;;;;;;;4.55;2.28;;;5.60;99.90;;;;;;5046675;28;20056;-40
2023/03/17 02:26:59;;;;;;;3.83;1.95;;;5.70;99.90;;;;;;5045756;28;20036;-40
2023/03/17 02:29:24;;;;;;;3.67;2.33;;;5.50;99.90;;;;;;5047094;28;20390;-40
2023/03/17 02:31:51;;;;;;;5.30;2.03;;;5.40;99.90;;;;;;5046777;28;20052;-40
2023/03/17 02:34:16;;;;;;;5.22;2.28;;;5.60;99.90;;;;;;5046759;28;20100;-40
2023/03/17 02:36:42;;;;;;;4.80;2.50;;;5.70;99.90;;;;;;5046863;28;20041;-40
2023/03/17 02:39:08;;;;;;;5.60;2.58;;;5.30;99.90;;;;;;5046458;28;20041;-40
2023/03/17 02:41:35;;;;;;;5.00;2.70;;;6.40;99.90;;;;;;5046816;28;20045;-40
2023/03/17 02:44:01;;;;;;;4.30;2.40;;;5.20;99.90;;;;;;5046381;28;20083;-40
2023/03/17 02:46:26;;;;;;;5.18;2.95;;;5.20;99.90;;;;;;5046369;28;20132;-40
2023/03/17 02:48:53;;;;;;;4.40;2.20;;;5.20;99.90;;;;;;5045863;28;20891;-40
2023/03/17 02:51:19;;;;;;;3.97;2.58;;;5.20;99.90;;;;;;5046759;28;20048;-40
2023/03/17 02:53:45;;;;;;;5.97;2.88;;;5.30;99.90;;;;;;5046724;28;20508;-40
2023/03/17 02:56:11;;;;;;;4.45;2.40;;;5.30;99.90;;;;;;5046661;28;20116;-40
2023/03/17 02:58:36;;;;;;;4.40;2.50;;;5.30;99.90;;;;;;5045991;28;20102;-40
2023/03/17 03:01:02;;;;;;;4.53;2.83;;;5.30;99.90;;;;;;5046393;28;20068;-40
2023/03/17 03:03:28;;;;;;;4.53;2.75;;;5.40;99.90;;;;;;5046891;28;20426;-40
2023/03/17 03:05:54;;;;;;;4.50;2.92;;;6.40;99.90;;;;;;5046716;28;20037;-40
2023/03/17 03:08:20;;;;;;;5.95;2.85;;;5.30;99.90;;;;;;5046235;28;20653;-40
2023/03/17 03:10:46;;;;;;;6.05;2.95;;;5.30;99.90;;;;;;5046584;28;20056;-40
2023/03/17 03:13:12;;;;;;;4.18;2.20;;;5.60;99.90;;;;;;5028398;28;20048;-40
2023/03/17 03:15:40;;;;;;;5.00;3.00;;;5.40;99.90;;;;;;5049683;28;20087;-40
2023/03/17 03:18:06;;;;;;;4.95;2.63;;;6.00;99.90;;;;;;5050117;28;20060;-40
2023/03/17 03:20:31;;;;;;;6.38;2.95;;;5.40;99.90;;;;;;5050143;28;20115;-40
2023/03/17 03:22:57;;;;;;;5.38;2.60;;;5.40;99.90;;;;;;5050090;28;20076;-40
2023/03/17 03:25:23;;;;;;;4.35;2.33;;;5.50;99.90;;;;;;5050237;28;20041;-40
2023/03/17 03:27:48;;;;;;;4.72;2.53;;;5.40;99.90;;;;;;5050341;28;20052;-40
2023/03/17 03:30:14;;;;;;;4.57;3.17;;;6.70;99.90;;;;;;5048791;28;20037;-40
2023/03/17 03:32:40;;;;;;;5.45;2.90;;;5.50;99.90;;;;;;5050442;28;20589;-40
2023/03/17 03:35:07;;;;;;;6.60;2.83;;;5.40;99.90;;;;;;5049943;28;20040;-40
2023/03/17 03:37:32;;;;;;;7.18;3.33;;;5.40;99.90;;;;;;5049815;28;20048;-40
2023/03/17 03:39:58;;;;;;;5.03;2.90;;;5.40;99.90;;;;;;5050028;28;20053;-40
2023/03/17 03:42:24;;;;;;;4.03;2.58;;;5.60;99.90;;;;;;5049914;28;20773;-40
2023/03/17 03:44:50;;;;;;;6.47;3.03;;;5.80;99.90;;;;;;5049809;28;20041;-40
2023/03/17 03:47:17;;;;;;;5.18;2.83;;;5.30;99.90;;;;;;5049443;28;20096;-40
2023/03/17 03:49:42;;;;;;;3.85;2.38;;;5.40;99.90;;;;;;5049547;28;20073;-40
2023/03/17 03:52:08;;;;;;;4.43;2.55;;;5.30;99.90;;;;;;5049327;28;20446;-40
2023/03/17 03:54:34;;;;;;;5.82;2.22;;;5.50;99.90;;;;;;5049499;28;20069;-40
2023/03/17 03:57:00;;;;;;;3.20;1.85;;;5.90;99.90;;;;;;5049393;28;20182;-40
2023/03/17 03:59:26;;;;;;;4.10;2.42;;;5.40;99.90;;;;;;5049847;28;20123;-40
2023/03/17 04:01:52;;;;;;;3.53;2.05;;;6.30;99.90;;;;;;5049746;28;20060;-40
2023/03/17 04:04:17;;;;;;;5.50;2.50;;;5.40;99.90;;;;;;5049846;28;20089;-40
2023/03/17 04:06:43;;;;;;;4.32;2.53;;;5.60;99.90;;;;;;5050109;28;20678;-40
2023/03/17 04:09:08;;;;;;;6.70;2.55;;;5.50;99.90;;;;;;5049615;28;20395;-40
2023/03/17 04:11:34;;;;;;;3.70;2.08;;;5.50;99.90;;;;;;5049981;28;20119;-40
2023/03/17 04:14:00;;;;;;;4.40;2.33;;;5.60;99.90;;;;;;5049614;28;20079;-40
2023/03/17 04:16:27;;;;;;;3.95;2.25;;;5.50;99.90;;;;;;5049166;28;20065;-40
2023/03/17 04:18:52;;;;;;;5.38;2.53;;;5.60;99.90;;;;;;5049209;28;20473;-40
2023/03/17 04:21:19;;;;;;;4.38;2.70;;;6.50;99.90;;;;;;5031040;28;20044;-40
2023/03/17 04:23:45;;;;;;;4.75;2.50;;;3.50;99.90;;;;;;5049287;28;20056;-40
2023/03/17 04:26:12;;;;;;;4.30;2.13;;;5.60;99.90;;;;;;5048212;28;20048;-40
2023/03/17 04:28:38;;;;;;;4.82;2.33;;;5.80;99.90;;;;;;5049148;28;20041;-40
2023/03/17 04:31:04;;;;;;;4.70;2.50;;;5.70;99.90;;;;;;5048733;28;20574;-40
2023/03/17 04:33:29;;;;;;;5.05;2.15;;;5.70;99.90;;;;;;5047295;28;20045;-40
2023/03/17 04:35:55;;;;;;;3.97;1.95;;;6.70;99.90;;;;;;5048911;28;20742;-40
2023/03/17 04:38:21;;;;;;;6.78;2.58;;;5.70;99.90;;;;;;5048778;28;20502;-40
2023/03/17 04:40:48;;;;;;;5.38;2.88;;;5.70;99.90;;;;;;5049239;28;20072;-40
2023/03/17 04:43:14;;;;;;;4.18;2.80;;;5.80;99.90;;;;;;5048848;28;20049;-40
2023/03/17 04:45:40;;;;;;;3.70;2.25;;;5.60;99.90;;;;;;5049206;28;20040;-40
2023/03/17 04:48:05;;;;;;;5.05;2.60;;;6.10;99.90;;;;;;5048957;28;20094;-40
2023/03/17 04:50:31;;;;;;;5.47;2.33;;;5.80;99.90;;;;;;5048983;28;20105;-40
2023/03/17 04:52:57;;;;;;;7.15;2.80;;;5.60;99.90;;;;;;5049049;28;20037;-39
2023/03/17 04:55:22;;;;;;;5.82;3.05;;;5.60;99.90;;;;;;5048738;28;20044;-39
2023/03/17 04:57:48;;;;;;;4.78;2.63;;;6.00;99.90;;;;;;5048809;28;20049;-39
2023/03/17 05:00:14;;;;;;;4.70;2.42;;;5.70;99.90;;;;;;5048555;28;20044;-39
2023/03/17 05:02:40;;;;;;;5.40;2.65;;;5.50;99.90;;;;;;5048863;28;20120;-39
2023/03/17 05:05:06;;;;;;;5.00;2.35;;;5.50;99.90;;;;;;5048360;28;20049;-40
2023/03/17 05:07:32;;;;;;;4.55;2.35;;;5.40;99.90;;;;;;5047846;28;20473;-39
2023/03/17 05:09:57;;;;;;;4.70;2.60;;;5.50;99.90;;;;;;5047803;28;20075;-39
2023/03/17 05:12:23;;;;;;;3.35;2.00;;;5.40;99.90;;;;;;5048285;28;20060;-39
2023/03/17 05:14:49;;;;;;;4.07;2.28;;;5.40;99.90;;;;;;5048194;28;20486;-39
2023/03/17 05:17:15;;;;;;;5.35;2.60;;;5.40;99.90;;;;;;5048250;28;20045;-39
2023/03/17 05:19:41;;;;;;;3.97;2.65;;;5.50;99.90;;;;;;5047795;28;20037;-39
2023/03/17 05:22:07;;;;;;;5.93;2.67;;;5.50;99.90;;;;;;5047973;28;20060;-40
2023/03/17 05:24:32;;;;;;;3.90;2.35;;;5.40;99.90;;;;;;5047548;28;20479;-39
2023/03/17 05:26:58;;;;;;;7.35;2.38;;;6.40;99.90;;;;;;5048084;28;20033;-39
2023/03/17 05:29:24;;;;;;;3.75;2.63;;;5.40;99.90;;;;;;5047955;28;20139;-40
2023/03/17 05:31:49;;;;;;;5.15;2.30;;;5.40;99.90;;;;;;5048091;28;20044;-40
2023/03/17 05:34:16;;;;;;;4.55;2.22;;;5.40;99.90;;;;;;5048087;28;20052;-40
2023/03/17 05:36:42;;;;;;;6.65;3.05;;;5.40;99.90;;;;;;5047603;28;20037;-40
2023/03/17 05:39:08;;;;;;;5.15;2.47;;;5.80;99.90;;;;;;5046845;28;20041;-40
2023/03/17 05:41:33;;;;;;;4.88;2.97;;;5.30;99.90;;;;;;5047151;28;20490;-40
2023/03/17 05:43:59;;;;;;;5.85;2.65;;;5.40;99.90;;;;;;5047317;28;20045;-40
2023/03/17 05:46:25;;;;;;;4.00;2.42;;;5.20;99.90;;;;;;5047322;28;20044;-40
2023/03/17 05:48:51;;;;;;;5.97;2.40;;;5.30;99.90;;;;;;5046999;28;20057;-40
2023/03/17 05:51:17;;;;;;;5.45;2.70;;;5.40;99.90;;;;;;5047082;28;20052;-40
2023/03/17 05:53:43;;;;;;;7.70;3.33;;;5.30;99.90;;;;;;5047348;28;20052;-40
2023/03/17 05:56:08;;;;;;;4.85;2.42;;;5.30;99.90;;;;;;5047224;28;20399;-40
2023/03/17 05:58:34;;;;;;;4.55;2.13;;;5.20;99.90;;;;;;5046812;28;20045;-40
2023/03/17 06:01:00;;;;;;;4.75;2.35;;;5.30;99.90;;;;;;5046655;28;20076;-40
2023/03/17 06:03:26;;;;;;;5.25;2.30;;;6.40;99.90;;;;;;5046784;28;20099;-40
2023/03/17 06:05:52;;;;;;;4.13;2.03;;;6.40;99.90;;;;;;5046922;28;20526;-40
2023/03/17 06:08:17;;;;;;;5.95;2.83;;;5.40;99.90;;;;;;5047426;28;20041;-40
2023/03/17 06:10:43;;;;;;;5.78;2.63;;;5.50;99.90;;;;;;5046837;28;20436;-40
2023/03/17 06:13:10;;;;;;;4.97;2.53;;;5.70;99.90;;;;;;5047465;28;20047;-40
2023/03/17 06:15:36;;;;;;;4.60;2.75;;;5.70;99.90;;;;;;5047441;28;20045;-40
2023/03/17 06:18:04;;;;;;;5.22;2.22;;;6.00;99.90;;;;;;5047314;28;20053;-40
2023/03/17 06:20:31;;;;;;;4.00;2.35;;;5.50;99.90;;;;;;5046911;28;20382;-40
2023/03/17 06:22:57;;;;;;;4.25;1.85;;;5.90;99.90;;;;;;5047257;28;20047;-40
2023/03/17 06:25:23;;;;;;;3.58;2.08;;;7.00;99.90;;;;;;5047025;28;20048;-40
2023/03/17 06:27:53;;;;;;;4.43;1.85;;;6.60;99.90;;;;;;5047057;28;20037;-40
2023/03/17 06:30:19;;;;;;;5.00;2.50;;;7.10;99.90;;;;;;5047164;28;20045;-40
2023/03/17 06:32:44;;;;;;;4.35;2.83;;;6.40;99.90;;;;;;5047103;28;20047;-40
2023/03/17 06:35:10;;;;;;;3.65;1.88;;;6.70;99.90;;;;;;5046688;28;20080;-40
2023/03/17 06:37:36;;;;;;;2.75;1.70;;;6.90;99.90;;;;;;5046745;28;20051;-40
2023/03/17 06:40:03;;;;;;;4.53;1.80;;;6.60;99.90;;;;;;5046879;28;20044;-41
2023/03/17 06:42:29;;;;;;;4.70;1.70;;;6.70;99.90;;;;;;5028815;28;20044;-40
2023/03/17 06:44:54;;;;;;;5.35;2.05;;;7.10;99.90;;;;;;5046948;28;20033;-40
2023/03/17 06:47:20;;;;;;;4.55;1.70;;;7.60;99.90;;;;;;5047271;28;20497;-40
2023/03/17 06:49:46;;;;;;;4.55;1.70;;;7.00;99.90;;;;;;5046290;28;20513;-40
2023/03/17 06:52:12;;;;;;;4.97;2.10;;;7.60;99.90;;;;;;5046828;28;20108;-40
2023/03/17 06:54:38;;;;;;;3.13;1.67;;;8.20;99.90;;;;;;5029291;28;20390;-40
2023/03/17 06:57:04;;;;;;;4.72;2.47;;;7.20;99.90;;;;;;5046375;28;20045;-40
2023/03/17 06:59:30;;;;;;;4.97;2.03;;;7.00;99.90;;;;;;5046524;28;20087;-40
2023/03/17 07:01:56;;;;;;;3.97;1.40;;;8.40;99.90;;;;;;5046951;28;20041;-40
2023/03/17 07:04:22;;;;;;;3.75;1.85;;;7.30;99.90;;;;;;5047001;28;20060;-40
2023/03/17 07:06:47;;;;;;;5.88;2.03;;;7.30;99.90;;;;;;5046233;28;20036;-40
2023/03/17 07:09:14;;;;;;;4.55;1.90;;;8.10;99.90;;;;;;5046620;28;20075;-40
2023/03/17 07:11:40;;;;;;;3.70;2.13;;;7.30;99.90;;;;;;5046749;28;20045;-40
2023/03/17 07:14:06;;;;;;;6.05;2.00;;;7.90;99.90;;;;;;5046507;28;20045;-40
2023/03/17 07:16:32;;;;;;;3.28;1.70;;;7.40;99.90;;;;;;5046141;28;20494;-40
2023/03/17 07:19:00;;;;;;;4.55;1.95;;;8.20;99.90;;;;;;5045993;28;20041;-40
2023/03/17 07:21:25;;;;;;;4.05;1.67;;;7.60;99.90;;;;;;5045579;28;20124;-40
2023/03/17 07:23:51;;;;;;;4.22;1.90;;;7.60;99.90;;;;;;5046078;28;20116;-40
2023/03/17 07:26:17;;;;;;;5.97;2.00;;;7.80;99.90;;;;;;5046150;28;20029;-40
2023/03/17 07:28:43;;;;;;;4.30;1.67;;;7.80;99.90;;;;;;5046689;28;20510;-40
2023/03/17 07:31:12;;;;;;;4.05;2.10;;;8.30;99.90;;;;;;5046555;28;20552;-40
2023/03/17 07:33:39;;;;;;;3.80;1.55;;;8.00;99.90;;;;;;5046414;28;20059;-40
2023/03/17 07:36:06;;;;;;;3.67;1.63;;;8.10;99.90;;;;;;5047240;28;20043;-40
2023/03/17 07:38:32;;;;;;;2.78;1.42;;;8.20;99.90;;;;;;5047029;28;20060;-40
2023/03/17 07:40:58;;;;;;;4.55;1.80;;;8.60;99.90;;;;;;5046619;28;20536;-40
2023/03/17 07:43:24;;;;;;;4.32;1.35;;;8.80;99.90;;;;;;5046526;28;20045;-40
2023/03/17 07:45:50;;;;;;;3.08;1.25;;;8.90;99.90;;;;;;5046110;28;20045;-41
2023/03/17 07:48:16;;;;;;;4.85;2.53;;;9.30;99.90;;;;;;5046445;28;20123;-40
2023/03/17 07:50:43;;;;;;;3.60;1.38;;;9.70;99.90;;;;;;5046165;28;20057;-41
2023/03/17 07:53:09;;;;;;;3.50;1.83;;;9.90;99.90;;;;;;5046274;28;20059;-40
2023/03/17 07:55:36;;;;;;;3.67;1.33;;;10.60;99.90;;;;;;5045751;28;20049;-41
2023/03/17 07:58:02;;;;;;;3.55;1.15;;;10.50;99.90;;;;;;5046126;28;20084;-40
2023/03/17 08:00:28;;;;;;;3.75;1.50;;;10.30;99.90;;;;;;5046210;28;20073;-40
2023/03/17 08:02:55;;;;;;;4.65;1.50;;;10.30;99.90;;;;;;5049788;28;20071;-40
2023/03/17 08:05:21;;;;;;;3.17;1.30;;;10.40;99.80;;;;;;5050316;28;20036;-40
2023/03/17 08:07:47;;;;;;;4.65;1.48;;;10.40;99.60;;;;;;5049640;28;20368;-41
2023/03/17 08:10:13;;;;;;;3.30;1.30;;;10.40;99.20;;;;;;5031899;28;20053;-41
2023/03/17 08:12:41;;;;;;;5.55;1.48;;;10.40;99.30;;;;;;5049746;28;20037;-40
2023/03/17 08:15:08;;;;;;;6.82;1.55;;;10.60;99.00;;;;;;5049416;28;20037;-40
2023/03/17 08:17:35;;;;;;;5.32;1.48;;;10.80;98.60;;;;;;5049146;28;20036;-41
2023/03/17 08:20:03;;;;;;;4.65;1.40;;;11.10;98.50;;;;;;5049110;28;20045;-40
2023/03/17 08:22:29;;;;;;;4.00;1.63;;;11.50;98.50;;;;;;5049379;28;20043;-41
2023/03/17 08:24:54;;;;;;;2.58;1.05;;;12.00;99.90;;;;;;5049527;28;20029;-40
2023/03/17 08:27:21;;;;;;;6.28;1.23;;;12.40;97.80;;;;;;5049541;28;20475;-41
2023/03/17 08:29:47;;;;;;;3.25;1.25;;;12.70;96.90;;;;;;5049619;28;20479;-41
2023/03/17 08:32:13;;;;;;;2.97;1.08;;;12.90;96.10;;;;;;5049894;28;20049;-41
2023/03/17 08:34:39;;;;;;;4.65;1.70;;;12.90;95.70;;;;;;5049362;28;20049;-41
2023/03/17 08:37:05;;;;;;;4.03;1.48;;;13.30;98.40;;;;;;5048852;28;20041;-41
2023/03/17 08:39:31;;;;;;;5.95;1.70;;;13.10;96.90;;;;;;5049159;28;20045;-41
2023/03/17 08:41:57;;;;;;;4.03;1.35;;;13.00;96.90;;;;;;5048771;28;20501;-41
2023/03/17 08:44:22;;;;;;;6.18;2.72;;;13.20;96.30;;;;;;5049121;28;20698;-40
2023/03/17 08:46:50;;;;;;;3.65;1.30;;;13.20;96.00;;;;;;5048159;28;20445;-41
2023/03/17 08:49:16;;;;;;;5.10;1.20;;;13.20;96.10;;;;;;5048625;28;20083;-41
2023/03/17 08:51:43;;;;;;;2.92;1.20;;;13.20;95.90;;;;;;5048895;28;20057;-41
2023/03/17 08:54:10;;;;;;;3.45;1.38;;;13.20;95.90;;;;;;5048609;28;20107;-41
2023/03/17 08:56:36;;;;;;;3.38;1.60;;;13.50;95.10;;;;;;5048741;28;20391;-42
2023/03/17 08:59:04;;;;;;;3.67;1.23;;;13.90;95.10;;;;;;5048060;28;20124;-42
2023/03/17 09:01:31;;;;;;;4.97;1.60;;;14.30;95.50;;;;;;5048448;28;20037;-41
2023/03/17 09:03:57;;;;;;;2.58;1.40;;;14.50;93.60;;;;;;5048371;28;20120;-41
2023/03/17 09:06:24;;;;;;;3.35;1.40;;;14.90;94.60;;;;;;5048823;28;20715;-41
2023/03/17 09:08:54;;;;;;;5.80;1.05;;;15.10;98.00;;;;;;5048357;28;20044;-41
2023/03/17 09:11:22;;;;;;;4.03;1.60;;;15.20;99.90;;;;;;5048070;28;20132;-40
2023/03/17 09:13:49;;;;;;;7.63;1.70;;;15.60;94.90;;;;;;5047069;28;20048;-41
2023/03/17 09:16:16;;;;;;;4.38;1.48;;;15.80;95.80;;;;;;5046873;28;20049;-41
2023/03/17 09:18:43;;;;;;;5.53;1.55;;;16.20;94.60;;;;;;5047371;28;20118;-41
2023/03/17 09:21:11;;;;;;;4.05;1.50;;;16.10;92.20;;;;;;5046853;28;20434;-41
2023/03/17 09:23:37;;;;;;;4.63;1.33;;;16.00;91.00;;;;;;5046797;28;20044;-41
2023/03/17 09:26:02;;;;;;;3.38;1.17;;;15.80;91.00;;;;;;5046587;28;20545;-41
2023/03/17 09:28:28;;;;;;;2.53;1.52;;;15.70;90.60;;;;;;5047311;28;20394;-42
2023/03/17 09:31:03;;;;;;;4.35;1.63;;;15.70;90.10;;;;;;5047180;28;20041;-41
2023/03/17 09:33:29;;;;;;;6.78;2.03;;;15.20;89.80;;;;;;5009615;28;20096;-42
2023/03/17 09:35:55;;;;;;;3.80;1.70;;;16.20;88.80;;;;;;5025794;28;20088;-42
2023/03/17 09:38:22;;;;;;;3.30;1.58;;;16.40;88.30;;;;;;5043110;28;20057;-41
2023/03/17 09:40:52;;;;;;;4.85;2.35;;;16.30;87.30;;;;;;5043177;28;20840;-42
2023/03/17 09:43:18;;;;;;;3.28;1.35;;;16.20;87.70;;;;;;5041820;28;20051;-42
2023/03/17 09:45:44;;;;;;;4.03;1.55;;;16.30;90.00;;;;;;5042743;28;20383;-43
2023/03/17 09:48:35;;;;;;;4.95;1.98;;;16.60;94.20;;;;;;5042875;28;20198;-41
2023/03/17 09:51:03;;;;;;;4.50;2.03;;;16.60;87.20;;;;;;5043273;28;20234;-42
2023/03/17 09:53:40;;;;;;;3.60;1.67;;;17.10;89.70;;;;;;5043696;28;20049;-43
2023/03/17 09:56:15;;;;;;;5.05;1.80;;;18.10;87.10;;;;;;5043290;28;20063;-43
2023/03/17 09:58:52;;;;;;;6.20;1.75;;;19.30;85.40;;;;;;5041994;28;20052;-39
2023/03/17 10:01:18;;;;;;;5.07;2.00;;;20.30;81.80;;;;;;5042895;28;20055;-39
2023/03/17 10:03:46;;;;;;;3.67;1.48;;;20.80;78.90;;;;;;5042273;28;20072;-39
2023/03/17 10:06:17;;;;;;;4.60;1.58;;;20.90;77.30;;;;;;5042182;28;20037;-39
2023/03/17 10:08:55;;;;;;;5.05;1.55;;;21.40;73.20;;;;;;5042487;28;20119;-39
2023/03/17 10:11:53;;;;;;;7.55;2.17;;;21.90;75.00;;;;;;5042123;28;20044;-39
2023/03/17 10:14:27;;;;;;;4.40;2.00;;;21.90;73.00;;;;;;5040008;28;20048;-39
2023/03/17 10:17:09;;;;;;;3.85;1.70;;;21.10;72.80;;;;;;5023332;28;20510;-39
2023/03/17 10:19:43;;;;;;;3.88;1.73;;;21.40;73.00;;;;;;5041944;28;20682;-39
2023/03/17 10:22:18;;;;;;;5.05;2.13;;;21.10;73.60;;;;;;5042167;28;20047;-39
2023/03/17 10:24:51;;;;;;;3.55;1.73;;;21.20;73.70;;;;;;5041805;28;20045;-39
2023/03/17 10:27:23;;;;;;;3.80;1.67;;;21.50;72.90;;;;;;5030126;28;20071;-40
2023/03/17 10:29:49;;;;;;;5.30;1.90;;;21.70;71.40;;;;;;5057602;28;20482;-42
2023/03/17 10:32:15;;;;;;;3.35;1.70;;;21.90;70.60;;;;;;5059573;28;20059;-40
2023/03/17 10:34:45;;;;;;;6.15;1.98;;;21.90;69.40;;;;;;5083141;28;20036;-40
2023/03/17 10:37:21;;;;;;;3.58;2.20;;;21.60;70.30;;;;;;5060132;28;20152;-41
2023/03/17 10:39:53;;;;;;;5.50;2.42;;;21.40;70.40;;;;;;5060146;28;20122;-39
2023/03/17 10:42:34;;;;;;;3.72;1.88;;;21.30;70.70;;;;;;5079389;28;20043;-39
2023/03/17 10:45:27;;;;;;;3.83;1.92;;;21.10;70.50;;;;;;5079389;28;20040;-40
2023/03/17 10:47:56;;;;;;;5.57;2.63;;;20.80;70.10;;;;;;5058676;28;20748;-39
2023/03/17 10:50:30;;;;;;;4.25;2.60;;;20.70;70.00;;;;;;5079986;28;20522;-39
2023/03/17 10:53:07;;;;;;;10.00;2.72;;;20.40;69.30;;;;;;5078863;28;20099;-38
2023/03/17 10:55:43;;;;;;;5.00;2.65;;;20.40;76.40;;;;;;5080421;28;20040;-39
2023/03/17 10:58:09;;;;;;;4.88;2.50;;;20.00;69.40;;;;;;5060562;28;20391;-39
2023/03/17 11:00:37;;;;;;;4.38;2.70;;;19.50;70.30;;;;;;5079448;28;20040;-39
2023/03/17 11:03:21;;;;;;;4.90;2.40;;;19.20;70.20;;;;;;5060807;28;20067;-38
2023/03/17 11:05:56;;;;;;;4.68;1.85;;;18.90;72.10;;;;;;5061077;28;20219;-39
2023/03/17 11:08:22;;;;;;;4.40;2.08;;;18.60;72.60;;;;;;5078822;28;20558;-39
2023/03/17 11:10:54;;;;;;;6.57;2.63;;;18.30;73.30;;;;;;5078502;28;20040;-39
2023/03/17 11:13:20;;;;;;;6.32;2.58;;;18.10;74.80;;;;;;5078730;28;20082;-40
2023/03/17 11:15:51;;;;;;;5.35;2.50;;;17.90;75.20;;;;;;5077100;28;20044;-40
2023/03/17 11:18:43;;;;;;;4.65;2.35;;;17.90;74.00;;;;;;5079104;28;20375;-40
2023/03/17 11:21:13;;;;;;;5.95;2.78;;;17.80;74.90;;;;;;5075029;28;20071;-39
2023/03/17 11:23:49;;;;;;;4.07;2.00;;;17.80;75.60;;;;;;5078690;28;20080;-39
2023/03/17 11:26:44;;;;;;;3.95;2.20;;;17.90;75.20;;;;;;5055848;28;20047;-39
2023/03/17 11:29:22;;;;;;;5.35;2.72;;;18.10;75.70;;;;;;5062815;28;20040;-40
2023/03/17 11:32:24;;;;;;;5.38;2.28;;;18.30;74.80;;;;;;5037968;28;20063;-40
2023/03/17 11:35:11;;;;;;;5.40;2.63;;;18.50;74.50;;;;;;5081859;28;20120;-40
2023/03/17 11:37:40;;;;;;;5.43;2.75;;;18.60;72.70;;;;;;5065695;28;20555;-40
2023/03/17 11:40:25;;;;;;;5.97;2.72;;;18.60;74.40;;;;;;5063951;28;20048;-40
2023/03/17 11:43:30;;;;;;;5.05;3.20;;;18.60;75.00;;;;;;5081006;28;20044;-40
2023/03/17 11:46:03;;;;;;;5.32;2.47;;;18.70;75.60;;;;;;5060077;28;20071;-39
2023/03/17 11:49:05;;;;;;;5.38;2.45;;;18.30;75.20;;;;;;5044693;28;20091;-40
2023/03/17 11:51:52;;;;;;;7.10;2.80;;;18.40;75.30;;;;;;5045067;28;20056;-42
2023/03/17 11:54:38;;;;;;;6.30;2.83;;;18.10;75.90;;;;;;5067306;28;20101;-39
2023/03/17 11:57:11;;;;;;;4.82;2.75;;;17.90;77.50;;;;;;5064760;28;20051;-38
2023/03/17 12:00:02;;;;;;;5.43;2.97;;;17.60;77.30;;;;;;5047707;28;20044;-39
2023/03/17 12:02:56;;;;;;;6.47;3.17;;;17.30;77.70;;;;;;5064238;28;20043;-40
2023/03/17 12:05:25;;;;;;;6.75;3.17;;;17.10;78.60;;;;;;5067049;28;20125;-41
2023/03/17 12:08:10;;;;;;;4.43;2.60;;;17.00;79.30;;;;;;5064998;28;20044;-42
2023/03/17 12:10:41;;;;;;;5.53;2.70;;;16.90;80.30;;;;;;5063764;28;20225;-41
2023/03/17 12:13:19;;;;;;;6.47;3.47;;;16.80;80.70;;;;;;5063627;28;20206;-43
2023/03/17 12:15:45;;;;;;;5.35;2.88;;;16.80;80.80;;;;;;5063035;28;20040;-40
2023/03/17 12:18:25;;;;;;;8.65;3.67;;;16.40;80.40;;;;;;5065829;28;20469;-40
2023/03/17 12:21:06;;;;;;;7.18;3.50;;;16.70;81.00;;;;;;5063182;28;20045;-39
2023/03/17 12:23:32;;;;;;;7.10;3.25;;;16.60;81.20;;;;;;5065315;28;20075;-40
2023/03/17 12:26:14;;;;;;;6.80;3.53;;;16.50;81.20;;;;;;5064488;28;20040;-40
2023/03/17 12:29:17;;;;;;;9.25;4.00;;;16.40;81.60;;;;;;5064456;28;20063;-40
2023/03/17 12:31:58;;;;;;;6.85;3.30;;;16.20;82.20;;;;;;5064445;28;20054;-39
2023/03/17 12:34:38;;;;;;;8.18;3.25;;;16.30;82.80;;;;;;5064251;28;20048;-39
2023/03/17 12:37:04;;;;;;;5.55;3.53;;;16.50;83.00;;;;;;5047954;28;20090;-40
2023/03/17 12:39:32;;;;;;;5.70;3.45;;;16.60;82.70;;;;;;5065165;28;20079;-40
2023/03/17 12:42:19;;;;;;;4.43;3.17;;;16.70;83.30;;;;;;5062738;28;20063;-45
2023/03/17 12:45:29;;;;;;;6.15;3.55;;;16.80;83.00;;;;;;5066221;28;20052;-45
2023/03/17 12:48:04;;;;;;;4.90;3.03;;;16.90;82.00;;;;;;5065922;28;20040;-41
2023/03/17 12:51:07;;;;;;;5.22;3.13;;;17.10;82.00;;;;;;5064641;28;20048;-42
2023/03/17 12:53:37;;;;;;;5.28;2.38;;;17.10;81.00;;;;;;5049194;28;20044;-42
2023/03/17 12:56:23;;;;;;;7.85;2.67;;;17.10;80.40;;;;;;5066998;28;20072;-41
2023/03/17 12:58:51;;;;;;;7.47;2.58;;;17.10;80.50;;;;;;5068728;28;20124;-43
2023/03/17 13:01:36;;;;;;;5.65;2.72;;;17.00;80.70;;;;;;5067480;28;20048;-41
2023/03/17 13:04:28;;;;;;;5.97;3.38;;;17.00;80.60;;;;;;5067376;28;20059;-41